sensor_id;sensor_type;location;lat;lon;timestamp;pressure;altitude;pressure_sealevel;temperature;humidity
45040;BME280;30778;53.574;7.770;2023-02-01T00:01:10;101295.13;;;4.00;49.58
45040;BME280;30778;53.574;7.770;2023-02-01T00:03:35;101293.63;;;3.67;49.97
45040;BME280;30778;53.574;7.770;2023-02-01T00:06:01;101291.97;;;3.43;50.38
45040;BME280;30778;53.574;7.770;2023-02-01T00:08:27;101294.38;;;3.80;49.59
45040;BME280;30778;53.574;7.770;2023-02-01T00:11:03;101311.63;;;3.84;49.81
45040;BME280;30778;53.574;7.770;2023-02-01T00:13:30;101297.03;;;3.74;49.99
45040;BME280;30778;53.574;7.770;2023-02-01T00:16:09;101302.19;;;3.72;49.84
45040;BME280;30778;53.574;7.770;2023-02-01T00:18:35;101299.63;;;3.66;50.35
45040;BME280;30778;53.574;7.770;2023-02-01T00:21:01;101284.81;;;3.97;49.63
45040;BME280;30778;53.574;7.770;2023-02-01T00:23:26;101290.00;;;3.97;49.67
45040;BME280;30778;53.574;7.770;2023-02-01T00:25:53;101296.00;;;4.02;49.49
45040;BME280;30778;53.574;7.770;2023-02-01T00:28:18;101290.22;;;3.54;51.18
45040;BME280;30778;53.574;7.770;2023-02-01T00:30:44;101283.41;;;3.23;52.05
45040;BME280;30778;53.574;7.770;2023-02-01T00:33:09;101276.47;;;3.43;51.50
45040;BME280;30778;53.574;7.770;2023-02-01T00:35:35;101267.81;;;3.56;51.38
45040;BME280;30778;53.574;7.770;2023-02-01T00:38:01;101269.59;;;3.33;52.28
45040;BME280;30778;53.574;7.770;2023-02-01T00:40:26;101263.41;;;3.72;51.20
45040;BME280;30778;53.574;7.770;2023-02-01T00:42:52;101260.00;;;3.66;51.14
45040;BME280;30778;53.574;7.770;2023-02-01T00:45:18;101255.88;;;3.12;52.70
45040;BME280;30778;53.574;7.770;2023-02-01T00:47:43;101254.91;;;3.46;51.88
45040;BME280;30778;53.574;7.770;2023-02-01T00:50:09;101262.78;;;3.07;52.75
45040;BME280;30778;53.574;7.770;2023-02-01T00:52:35;101272.19;;;3.25;52.46
45040;BME280;30778;53.574;7.770;2023-02-01T00:55:01;101261.84;;;3.34;52.49
45040;BME280;30778;53.574;7.770;2023-02-01T00:57:26;101259.31;;;3.08;53.27
45040;BME280;30778;53.574;7.770;2023-02-01T00:59:51;101253.25;;;3.15;53.09
45040;BME280;30778;53.574;7.770;2023-02-01T01:02:17;101250.69;;;3.12;53.09
45040;BME280;30778;53.574;7.770;2023-02-01T01:04:43;101253.19;;;3.48;52.39
45040;BME280;30778;53.574;7.770;2023-02-01T01:07:08;101250.59;;;3.54;52.75
45040;BME280;30778;53.574;7.770;2023-02-01T01:09:34;101250.63;;;3.42;52.67
45040;BME280;30778;53.574;7.770;2023-02-01T01:11:59;101246.34;;;3.34;52.93
45040;BME280;30778;53.574;7.770;2023-02-01T01:14:30;101236.00;;;3.41;52.79
45040;BME280;30778;53.574;7.770;2023-02-01T01:16:55;101235.16;;;3.28;53.45
45040;BME280;30778;53.574;7.770;2023-02-01T01:19:21;101230.66;;;3.74;51.82
45040;BME280;30778;53.574;7.770;2023-02-01T01:21:46;101237.69;;;3.45;52.97
45040;BME280;30778;53.574;7.770;2023-02-01T01:24:12;101224.94;;;2.82;54.23
45040;BME280;30778;53.574;7.770;2023-02-01T01:26:37;101234.31;;;3.32;52.95
45040;BME280;30778;53.574;7.770;2023-02-01T01:29:03;101217.06;;;3.26;53.41
45040;BME280;30778;53.574;7.770;2023-02-01T01:31:29;101216.09;;;3.59;52.85
45040;BME280;30778;53.574;7.770;2023-02-01T01:33:57;101203.38;;;3.00;54.37
45040;BME280;30778;53.574;7.770;2023-02-01T01:36:24;101202.22;;;3.73;53.28
45040;BME280;30778;53.574;7.770;2023-02-01T01:38:50;101210.91;;;3.59;53.97
45040;BME280;30778;53.574;7.770;2023-02-01T01:41:21;101211.13;;;3.04;56.10
45040;BME280;30778;53.574;7.770;2023-02-01T01:43:51;101190.50;;;2.92;56.74
45040;BME280;30778;53.574;7.770;2023-02-01T01:46:21;101167.34;;;2.67;58.33
45040;BME280;30778;53.574;7.770;2023-02-01T01:48:50;101170.81;;;2.59;58.36
45040;BME280;30778;53.574;7.770;2023-02-01T01:51:18;101178.53;;;2.51;58.34
45040;BME280;30778;53.574;7.770;2023-02-01T01:53:53;101187.13;;;2.53;58.31
45040;BME280;30778;53.574;7.770;2023-02-01T01:56:20;101182.84;;;2.61;58.17
45040;BME280;30778;53.574;7.770;2023-02-01T01:58:46;101167.41;;;2.26;58.49
45040;BME280;30778;53.574;7.770;2023-02-01T02:01:12;101187.13;;;2.65;57.37
45040;BME280;30778;53.574;7.770;2023-02-01T02:03:40;101178.59;;;2.40;57.66
45040;BME280;30778;53.574;7.770;2023-02-01T02:06:28;101170.84;;;2.12;57.57
45040;BME280;30778;53.574;7.770;2023-02-01T02:08:56;101168.16;;;2.89;56.06
45040;BME280;30778;53.574;7.770;2023-02-01T02:11:22;101163.09;;;2.23;57.68
45040;BME280;30778;53.574;7.770;2023-02-01T02:13:52;101156.97;;;2.87;56.14
45040;BME280;30778;53.574;7.770;2023-02-01T02:19:27;101151.03;;;2.56;57.03
45040;BME280;30778;53.574;7.770;2023-02-01T02:36:12;101145.06;;;2.20;57.72
45040;BME280;30778;53.574;7.770;2023-02-01T02:41:48;101131.25;;;2.40;58.09
45040;BME280;30778;53.574;7.770;2023-02-01T02:44:45;101118.38;;;2.47;57.51
45040;BME280;30778;53.574;7.770;2023-02-01T02:47:36;101115.84;;;1.89;59.20
45040;BME280;30778;53.574;7.770;2023-02-01T02:50:14;101113.09;;;2.81;56.94
45040;BME280;30778;53.574;7.770;2023-02-01T02:53:10;101107.19;;;2.51;57.54
45040;BME280;30778;53.574;7.770;2023-02-01T02:55:58;101090.03;;;2.27;58.35
45040;BME280;30778;53.574;7.770;2023-02-01T02:58:45;101082.31;;;2.01;59.43
45040;BME280;30778;53.574;7.770;2023-02-01T03:01:30;101079.75;;;2.06;59.50
45040;BME280;30778;53.574;7.770;2023-02-01T03:04:14;101078.88;;;2.04;59.35
45040;BME280;30778;53.574;7.770;2023-02-01T03:06:45;101068.53;;;2.19;59.21
45040;BME280;30778;53.574;7.770;2023-02-01T03:09:19;101066.75;;;2.52;58.48
45040;BME280;30778;53.574;7.770;2023-02-01T03:11:47;101048.78;;;2.12;59.44
45040;BME280;30778;53.574;7.770;2023-02-01T03:14:35;101057.31;;;2.39;59.01
45040;BME280;30778;53.574;7.770;2023-02-01T03:17:17;101054.69;;;2.54;58.78
45040;BME280;30778;53.574;7.770;2023-02-01T03:19:46;101051.31;;;2.32;59.36
45040;BME280;30778;53.574;7.770;2023-02-01T03:22:17;101065.06;;;2.40;58.76
45040;BME280;30778;53.574;7.770;2023-02-01T03:24:55;101056.53;;;2.01;59.10
45040;BME280;30778;53.574;7.770;2023-02-01T03:27:33;101041.94;;;2.09;58.83
45040;BME280;30778;53.574;7.770;2023-02-01T03:32:47;101043.59;;;2.33;58.38
45040;BME280;30778;53.574;7.770;2023-02-01T03:35:40;101036.75;;;1.32;60.77
45040;BME280;30778;53.574;7.770;2023-02-01T03:38:18;101031.56;;;2.26;58.78
45040;BME280;30778;53.574;7.770;2023-02-01T03:40:51;101030.72;;;2.15;59.29
45040;BME280;30778;53.574;7.770;2023-02-01T03:43:18;101032.53;;;1.67;60.58
45040;BME280;30778;53.574;7.770;2023-02-01T03:45:50;101032.47;;;2.04;59.99
45040;BME280;30778;53.574;7.770;2023-02-01T03:48:18;101010.13;;;2.06;59.97
45040;BME280;30778;53.574;7.770;2023-02-01T03:50:47;101013.56;;;2.02;60.67
45040;BME280;30778;53.574;7.770;2023-02-01T03:53:17;101013.59;;;1.96;60.81
45040;BME280;30778;53.574;7.770;2023-02-01T03:55:44;101002.47;;;1.64;61.23
45040;BME280;30778;53.574;7.770;2023-02-01T03:58:14;101017.03;;;1.79;61.08
45040;BME280;30778;53.574;7.770;2023-02-01T04:00:42;101006.75;;;1.67;61.66
45040;BME280;30778;53.574;7.770;2023-02-01T04:03:09;101007.53;;;2.17;59.75
45040;BME280;30778;53.574;7.770;2023-02-01T04:05:35;100998.00;;;2.39;59.75
45040;BME280;30778;53.574;7.770;2023-02-01T04:08:03;101011.88;;;1.94;60.44
45040;BME280;30778;53.574;7.770;2023-02-01T04:10:30;101009.25;;;2.08;60.05
45040;BME280;30778;53.574;7.770;2023-02-01T04:12:56;101008.34;;;2.23;59.65
45040;BME280;30778;53.574;7.770;2023-02-01T04:15:21;101004.03;;;2.36;59.28
45040;BME280;30778;53.574;7.770;2023-02-01T04:17:46;101010.97;;;2.14;59.68
45040;BME280;30778;53.574;7.770;2023-02-01T04:20:12;101009.31;;;1.79;60.50
45040;BME280;30778;53.574;7.770;2023-02-01T04:22:37;101010.09;;;2.21;59.53
45040;BME280;30778;53.574;7.770;2023-02-01T04:25:03;101017.00;;;2.16;59.31
45040;BME280;30778;53.574;7.770;2023-02-01T04:27:31;101001.31;;;2.64;57.85
45040;BME280;30778;53.574;7.770;2023-02-01T04:29:56;101007.44;;;2.49;58.75
45040;BME280;30778;53.574;7.770;2023-02-01T04:32:22;101015.25;;;2.10;60.34
45040;BME280;30778;53.574;7.770;2023-02-01T04:34:47;101006.72;;;1.85;61.59
45040;BME280;30778;53.574;7.770;2023-02-01T04:37:13;101001.53;;;2.04;61.20
45040;BME280;30778;53.574;7.770;2023-02-01T04:39:38;101014.41;;;2.11;60.85
45040;BME280;30778;53.574;7.770;2023-02-01T04:42:04;101010.00;;;2.46;59.78
45040;BME280;30778;53.574;7.770;2023-02-01T04:44:29;100999.00;;;1.85;60.77
45040;BME280;30778;53.574;7.770;2023-02-01T04:46:55;100998.03;;;2.26;59.65
45040;BME280;30778;53.574;7.770;2023-02-01T04:49:20;100997.06;;;2.55;58.88
45040;BME280;30778;53.574;7.770;2023-02-01T04:51:47;101002.38;;;2.13;59.91
45040;BME280;30778;53.574;7.770;2023-02-01T04:54:13;101001.31;;;2.62;58.11
45040;BME280;30778;53.574;7.770;2023-02-01T04:56:40;100987.41;;;2.88;57.23
45040;BME280;30778;53.574;7.770;2023-02-01T04:59:05;100991.88;;;2.61;58.11
45040;BME280;30778;53.574;7.770;2023-02-01T05:01:31;100996.75;;;3.09;57.02
45040;BME280;30778;53.574;7.770;2023-02-01T05:03:57;101014.22;;;2.64;57.96
45040;BME280;30778;53.574;7.770;2023-02-01T05:06:23;101017.78;;;2.37;59.21
45040;BME280;30778;53.574;7.770;2023-02-01T05:08:48;101014.41;;;2.16;59.26
45040;BME280;30778;53.574;7.770;2023-02-01T05:11:14;101015.28;;;2.06;59.26
45040;BME280;30778;53.574;7.770;2023-02-01T05:13:59;101029.84;;;2.19;59.15
45040;BME280;30778;53.574;7.770;2023-02-01T05:16:25;101012.66;;;2.15;59.58
45040;BME280;30778;53.574;7.770;2023-02-01T05:18:52;101016.06;;;2.31;59.34
45040;BME280;30778;53.574;7.770;2023-02-01T05:21:17;101008.31;;;2.39;58.83
45040;BME280;30778;53.574;7.770;2023-02-01T05:23:43;101022.09;;;2.36;59.37
45040;BME280;30778;53.574;7.770;2023-02-01T05:26:27;101020.34;;;2.40;59.08
45040;BME280;30778;53.574;7.770;2023-02-01T05:28:53;101018.53;;;2.57;58.40
45040;BME280;30778;53.574;7.770;2023-02-01T05:31:19;101012.53;;;2.55;58.18
45040;BME280;30778;53.574;7.770;2023-02-01T05:33:44;101013.31;;;2.72;57.50
45040;BME280;30778;53.574;7.770;2023-02-01T05:36:10;101015.97;;;2.59;57.65
45040;BME280;30778;53.574;7.770;2023-02-01T05:38:35;101011.50;;;2.90;56.73
45040;BME280;30778;53.574;7.770;2023-02-01T05:41:01;101017.56;;;2.87;56.84
45040;BME280;30778;53.574;7.770;2023-02-01T05:43:26;101014.19;;;2.68;57.30
45040;BME280;30778;53.574;7.770;2023-02-01T05:45:52;101008.97;;;2.77;57.17
45040;BME280;30778;53.574;7.770;2023-02-01T05:48:18;101022.09;;;2.31;58.00
45040;BME280;30778;53.574;7.770;2023-02-01T05:50:44;101008.94;;;2.90;56.76
45040;BME280;30778;53.574;7.770;2023-02-01T05:53:10;101023.75;;;2.55;57.19
45040;BME280;30778;53.574;7.770;2023-02-01T05:55:36;101017.00;;;2.07;57.74
45040;BME280;30778;53.574;7.770;2023-02-01T05:58:02;101018.66;;;2.35;57.30
45040;BME280;30778;53.574;7.770;2023-02-01T06:00:27;101027.97;;;2.64;56.10
45040;BME280;30778;53.574;7.770;2023-02-01T06:02:53;101039.97;;;2.76;55.65
45040;BME280;30778;53.574;7.770;2023-02-01T06:05:18;101039.28;;;2.26;56.75
45040;BME280;30778;53.574;7.770;2023-02-01T06:07:44;101031.44;;;2.62;55.06
45040;BME280;30778;53.574;7.770;2023-02-01T06:10:09;101028.09;;;2.38;55.23
45040;BME280;30778;53.574;7.770;2023-02-01T06:12:35;101028.88;;;2.57;54.79
45040;BME280;30778;53.574;7.770;2023-02-01T06:15:01;101040.81;;;2.83;54.25
45040;BME280;30778;53.574;7.770;2023-02-01T06:17:26;101039.16;;;2.63;54.67
45040;BME280;30778;53.574;7.770;2023-02-01T06:19:52;101041.50;;;3.11;54.03
45040;BME280;30778;53.574;7.770;2023-02-01T06:22:17;101034.50;;;3.28;53.41
45040;BME280;30778;53.574;7.770;2023-02-01T06:24:43;101039.84;;;2.99;54.87
45040;BME280;30778;53.574;7.770;2023-02-01T06:27:09;101041.41;;;3.25;54.53
45040;BME280;30778;53.574;7.770;2023-02-01T06:29:38;101049.31;;;3.05;55.66
45040;BME280;30778;53.574;7.770;2023-02-01T06:32:04;101042.41;;;3.05;54.89
45040;BME280;30778;53.574;7.770;2023-02-01T06:34:29;101044.13;;;3.00;55.05
45040;BME280;30778;53.574;7.770;2023-02-01T06:36:55;101032.19;;;2.87;55.33
45040;BME280;30778;53.574;7.770;2023-02-01T06:39:20;101035.75;;;2.58;55.50
45040;BME280;30778;53.574;7.770;2023-02-01T06:41:49;101035.47;;;3.10;54.15
45040;BME280;30778;53.574;7.770;2023-02-01T06:44:15;101037.34;;;2.84;53.88
45040;BME280;30778;53.574;7.770;2023-02-01T06:46:41;101042.53;;;2.87;53.82
45040;BME280;30778;53.574;7.770;2023-02-01T06:49:07;101037.41;;;2.68;54.17
45040;BME280;30778;53.574;7.770;2023-02-01T06:51:33;101039.09;;;2.83;53.49
45040;BME280;30778;53.574;7.770;2023-02-01T06:53:59;101028.91;;;2.48;53.95
45040;BME280;30778;53.574;7.770;2023-02-01T06:56:25;101021.25;;;2.28;54.28
45040;BME280;30778;53.574;7.770;2023-02-01T06:58:51;101038.97;;;3.03;52.80
45040;BME280;30778;53.574;7.770;2023-02-01T07:01:16;101040.75;;;2.90;53.03
45040;BME280;30778;53.574;7.770;2023-02-01T07:03:42;101044.13;;;3.05;53.06
45040;BME280;30778;53.574;7.770;2023-02-01T07:06:09;101048.38;;;3.09;53.06
45040;BME280;30778;53.574;7.770;2023-02-01T07:08:36;101053.78;;;2.66;53.66
45040;BME280;30778;53.574;7.770;2023-02-01T07:11:12;101049.41;;;2.85;53.61
45040;BME280;30778;53.574;7.770;2023-02-01T07:13:39;101045.72;;;3.29;52.50
45040;BME280;30778;53.574;7.770;2023-02-01T07:16:08;101044.03;;;3.15;52.88
45040;BME280;30778;53.574;7.770;2023-02-01T07:18:34;101041.59;;;2.97;53.30
45040;BME280;30778;53.574;7.770;2023-02-01T07:21:00;101044.78;;;3.39;52.34
45040;BME280;30778;53.574;7.770;2023-02-01T07:23:26;101052.66;;;3.17;52.22
45040;BME280;30778;53.574;7.770;2023-02-01T07:25:56;101039.00;;;2.97;53.29
45040;BME280;30778;53.574;7.770;2023-02-01T07:28:22;101050.78;;;3.44;51.83
45040;BME280;30778;53.574;7.770;2023-02-01T07:30:47;101067.47;;;2.89;53.00
45040;BME280;30778;53.574;7.770;2023-02-01T07:33:20;101070.81;;;3.05;52.26
45040;BME280;30778;53.574;7.770;2023-02-01T07:35:47;101060.41;;;3.13;52.23
45040;BME280;30778;53.574;7.770;2023-02-01T07:38:13;101063.22;;;2.70;53.44
45040;BME280;30778;53.574;7.770;2023-02-01T07:40:39;101063.91;;;3.04;51.98
45040;BME280;30778;53.574;7.770;2023-02-01T07:43:05;101082.59;;;3.52;51.01
45040;BME280;30778;53.574;7.770;2023-02-01T07:45:31;101077.56;;;3.34;51.18
45040;BME280;30778;53.574;7.770;2023-02-01T07:47:57;101081.78;;;3.44;50.82
45040;BME280;30778;53.574;7.770;2023-02-01T07:50:22;101086.88;;;3.55;50.95
45040;BME280;30778;53.574;7.770;2023-02-01T07:52:48;101068.19;;;3.08;51.58
45040;BME280;30778;53.574;7.770;2023-02-01T07:55:13;101084.38;;;3.46;51.18
45040;BME280;30778;53.574;7.770;2023-02-01T07:57:39;101073.28;;;3.22;52.12
45040;BME280;30778;53.574;7.770;2023-02-01T08:00:04;101059.59;;;3.09;52.55
45040;BME280;30778;53.574;7.770;2023-02-01T08:02:49;101053.50;;;3.23;51.55
45040;BME280;30778;53.574;7.770;2023-02-01T08:05:15;101059.50;;;3.22;51.71
45040;BME280;30778;53.574;7.770;2023-02-01T08:07:40;101055.94;;;3.44;50.96
45040;BME280;30778;53.574;7.770;2023-02-01T08:10:06;101055.06;;;3.47;50.48
45040;BME280;30778;53.574;7.770;2023-02-01T08:12:37;101054.97;;;3.57;50.17
45040;BME280;30778;53.574;7.770;2023-02-01T08:15:03;101066.22;;;3.53;50.28
45040;BME280;30778;53.574;7.770;2023-02-01T08:17:29;101070.63;;;3.41;50.92
45040;BME280;30778;53.574;7.770;2023-02-01T08:19:55;101061.88;;;3.55;50.43
45040;BME280;30778;53.574;7.770;2023-02-01T08:22:20;101060.31;;;3.34;51.25
45040;BME280;30778;53.574;7.770;2023-02-01T08:24:49;101055.16;;;3.34;51.53
45040;BME280;30778;53.574;7.770;2023-02-01T08:27:14;101061.81;;;3.66;50.56
45040;BME280;30778;53.574;7.770;2023-02-01T08:29:40;101066.38;;;3.32;51.20
45040;BME280;30778;53.574;7.770;2023-02-01T08:32:05;101056.59;;;3.71;50.59
45040;BME280;30778;53.574;7.770;2023-02-01T08:34:30;101057.88;;;4.21;49.33
45040;BME280;30778;53.574;7.770;2023-02-01T08:36:56;101069.59;;;3.62;50.98
45040;BME280;30778;53.574;7.770;2023-02-01T08:39:26;101072.78;;;3.93;50.12
45040;BME280;30778;53.574;7.770;2023-02-01T08:41:52;101057.53;;;3.65;51.22
45040;BME280;30778;53.574;7.770;2023-02-01T08:44:36;101060.31;;;3.34;51.83
45040;BME280;30778;53.574;7.770;2023-02-01T08:47:02;101061.84;;;3.63;51.46
45040;BME280;30778;53.574;7.770;2023-02-01T08:49:28;101062.09;;;4.30;50.08
45040;BME280;30778;53.574;7.770;2023-02-01T08:51:54;101066.47;;;4.18;50.24
45040;BME280;30778;53.574;7.770;2023-02-01T08:54:20;101050.16;;;4.16;50.69
45040;BME280;30778;53.574;7.770;2023-02-01T08:56:46;101051.75;;;4.25;50.52
45040;BME280;30778;53.574;7.770;2023-02-01T08:59:12;101055.19;;;4.27;50.53
45040;BME280;30778;53.574;7.770;2023-02-01T09:01:38;101042.47;;;4.07;51.11
45040;BME280;30778;53.574;7.770;2023-02-01T09:04:03;101039.44;;;4.47;50.48
45040;BME280;30778;53.574;7.770;2023-02-01T09:06:29;101044.72;;;4.39;50.90
45040;BME280;30778;53.574;7.770;2023-02-01T09:08:55;101048.09;;;4.43;50.18
45040;BME280;30778;53.574;7.770;2023-02-01T09:11:21;101025.16;;;4.14;51.11
45040;BME280;30778;53.574;7.770;2023-02-01T09:13:47;101032.22;;;3.98;51.71
45040;BME280;30778;53.574;7.770;2023-02-01T09:16:13;101026.56;;;3.57;52.64
45040;BME280;30778;53.574;7.770;2023-02-01T09:18:39;101031.06;;;4.25;51.21
45040;BME280;30778;53.574;7.770;2023-02-01T09:21:06;101023.38;;;4.19;51.38
45040;BME280;30778;53.574;7.770;2023-02-01T09:23:33;101000.75;;;3.53;52.51
45040;BME280;30778;53.574;7.770;2023-02-01T09:26:00;101033.19;;;3.86;52.24
45040;BME280;30778;53.574;7.770;2023-02-01T09:28:26;101024.28;;;4.15;51.51
45040;BME280;30778;53.574;7.770;2023-02-01T09:30:58;101021.06;;;3.91;52.14
45040;BME280;30778;53.574;7.770;2023-02-01T09:33:24;101017.72;;;3.80;52.41
45040;BME280;30778;53.574;7.770;2023-02-01T09:35:58;101011.13;;;3.48;53.19
45040;BME280;30778;53.574;7.770;2023-02-01T09:38:25;101009.06;;;3.84;52.51
45040;BME280;30778;53.574;7.770;2023-02-01T09:40:55;101005.72;;;3.74;53.30
45040;BME280;30778;53.574;7.770;2023-02-01T09:43:40;101000.53;;;3.79;53.38
45040;BME280;30778;53.574;7.770;2023-02-01T09:46:24;100998.16;;;3.51;53.84
45040;BME280;30778;53.574;7.770;2023-02-01T09:48:56;100980.88;;;3.58;53.70
45040;BME280;30778;53.574;7.770;2023-02-01T09:51:26;100992.16;;;3.52;53.66
45040;BME280;30778;53.574;7.770;2023-02-01T09:54:20;100979.78;;;3.85;53.45
45040;BME280;30778;53.574;7.770;2023-02-01T09:57:03;100986.53;;;3.98;52.65
45040;BME280;30778;53.574;7.770;2023-02-01T09:59:51;100983.41;;;3.63;53.70
45040;BME280;30778;53.574;7.770;2023-02-01T10:02:23;100974.59;;;3.85;53.25
45040;BME280;30778;53.574;7.770;2023-02-01T10:04:49;100988.75;;;3.47;54.04
45040;BME280;30778;53.574;7.770;2023-02-01T10:10:14;100984.72;;;3.06;55.24
45040;BME280;30778;53.574;7.770;2023-02-01T10:15:28;100980.13;;;3.48;54.91
45040;BME280;30778;53.574;7.770;2023-02-01T10:23:49;100967.47;;;3.10;57.14
45040;BME280;30778;53.574;7.770;2023-02-01T10:26:20;100966.72;;;2.91;57.58
45040;BME280;30778;53.574;7.770;2023-02-01T10:28:49;100953.19;;;2.58;58.24
45040;BME280;30778;53.574;7.770;2023-02-01T10:31:15;100961.75;;;2.63;57.87
45040;BME280;30778;53.574;7.770;2023-02-01T10:33:44;100971.31;;;2.41;59.19
45040;BME280;30778;53.574;7.770;2023-02-01T10:36:16;100975.34;;;2.96;58.10
45040;BME280;30778;53.574;7.770;2023-02-01T10:38:45;100962.72;;;2.38;59.85
45040;BME280;30778;53.574;7.770;2023-02-01T10:41:20;100979.22;;;2.04;60.74
45040;BME280;30778;53.574;7.770;2023-02-01T10:43:50;100971.34;;;2.38;59.66
45040;BME280;30778;53.574;7.770;2023-02-01T10:46:18;100992.91;;;2.17;60.55
45040;BME280;30778;53.574;7.770;2023-02-01T10:48:43;100981.84;;;1.50;58.26
45040;BME280;30778;53.574;7.770;2023-02-01T10:51:24;100985.28;;;1.26;57.76
45040;BME280;30778;53.574;7.770;2023-02-01T10:54:04;100984.41;;;1.14;57.57
45040;BME280;30778;53.574;7.770;2023-02-01T10:56:34;100968.91;;;0.80;57.83
45040;BME280;30778;53.574;7.770;2023-02-01T10:59:04;100950.06;;;0.93;56.64
45040;BME280;30778;53.574;7.770;2023-02-01T11:01:31;100954.94;;;0.04;57.37
45040;BME280;30778;53.574;7.770;2023-02-01T11:04:00;100954.78;;;-0.19;58.05
45040;BME280;30778;53.574;7.770;2023-02-01T11:06:29;100972.69;;;-0.33;58.24
45040;BME280;30778;53.574;7.770;2023-02-01T11:08:58;100969.78;;;-0.79;60.17
45040;BME280;30778;53.574;7.770;2023-02-01T11:11:25;101017.69;;;-0.78;59.90
45040;BME280;30778;53.574;7.770;2023-02-01T11:13:54;101051.47;;;-1.19;61.41
45040;BME280;30778;53.574;7.770;2023-02-01T11:16:20;101059.66;;;-1.48;61.13
45040;BME280;30778;53.574;7.770;2023-02-01T11:18:53;101038.94;;;-0.91;59.67
45040;BME280;30778;53.574;7.770;2023-02-01T11:21:20;101032.75;;;-1.07;61.43
45040;BME280;30778;53.574;7.770;2023-02-01T11:23:46;101021.06;;;-0.82;59.84
45040;BME280;30778;53.574;7.770;2023-02-01T11:26:22;101009.44;;;-0.43;59.77
45040;BME280;30778;53.574;7.770;2023-02-01T11:28:56;100991.59;;;-0.25;60.12
45040;BME280;30778;53.574;7.770;2023-02-01T11:31:23;100984.06;;;0.09;58.60
45040;BME280;30778;53.574;7.770;2023-02-01T11:33:53;100976.50;;;0.35;58.06
45040;BME280;30778;53.574;7.770;2023-02-01T11:36:23;100968.75;;;0.31;58.36
45040;BME280;30778;53.574;7.770;2023-02-01T11:42:05;100951.72;;;0.69;57.46
45040;BME280;30778;53.574;7.770;2023-02-01T11:44:39;100950.91;;;0.87;57.08
45040;BME280;30778;53.574;7.770;2023-02-01T11:47:30;100962.06;;;1.37;57.15
45040;BME280;30778;53.574;7.770;2023-02-01T11:50:03;100971.53;;;1.69;56.23
45040;BME280;30778;53.574;7.770;2023-02-01T11:52:52;100975.84;;;1.67;55.20
45040;BME280;30778;53.574;7.770;2023-02-01T12:01:34;100985.25;;;1.39;55.82
45040;BME280;30778;53.574;7.770;2023-02-01T12:07:09;100986.13;;;1.08;57.33
45040;BME280;30778;53.574;7.770;2023-02-01T12:12:25;100984.34;;;2.00;55.34
45040;BME280;30778;53.574;7.770;2023-02-01T12:34:41;100975.78;;;2.02;57.34
45040;BME280;30778;53.574;7.770;2023-02-01T12:42:18;100957.56;;;2.42;56.99
45040;BME280;30778;53.574;7.770;2023-02-01T12:44:53;100956.50;;;2.75;56.24
45040;BME280;30778;53.574;7.770;2023-02-01T12:47:44;100952.78;;;3.15;55.97
45040;BME280;30778;53.574;7.770;2023-02-01T12:50:20;100949.28;;;3.22;55.92
45040;BME280;30778;53.574;7.770;2023-02-01T12:52:51;100950.13;;;3.29;56.23
45040;BME280;30778;53.574;7.770;2023-02-01T12:57:55;100940.72;;;3.15;56.20
45040;BME280;30778;53.574;7.770;2023-02-01T13:05:46;100935.47;;;3.28;56.25
45040;BME280;30778;53.574;7.770;2023-02-01T13:08:22;100923.56;;;3.99;55.14
45040;BME280;30778;53.574;7.770;2023-02-01T13:10:56;100942.78;;;3.78;55.12
45040;BME280;30778;53.574;7.770;2023-02-01T13:13:36;100942.69;;;3.86;55.23
45040;BME280;30778;53.574;7.770;2023-02-01T13:18:43;100932.84;;;4.19;53.89
45040;BME280;30778;53.574;7.770;2023-02-01T13:21:16;100936.00;;;4.41;53.58
45040;BME280;30778;53.574;7.770;2023-02-01T13:23:46;100941.38;;;4.24;53.65
45040;BME280;30778;53.574;7.770;2023-02-01T13:26:12;100943.16;;;4.82;52.97
45040;BME280;30778;53.574;7.770;2023-02-01T13:28:47;100945.09;;;4.01;54.10
45040;BME280;30778;53.574;7.770;2023-02-01T13:39:26;100938.97;;;4.09;52.83
45040;BME280;30778;53.574;7.770;2023-02-01T13:42:19;100944.81;;;4.28;52.67
45040;BME280;30778;53.574;7.770;2023-02-01T13:44:57;100944.16;;;4.75;51.56
45040;BME280;30778;53.574;7.770;2023-02-01T13:47:25;100937.03;;;4.93;50.34
45040;BME280;30778;53.574;7.770;2023-02-01T13:49:53;100939.69;;;4.23;51.63
45040;BME280;30778;53.574;7.770;2023-02-01T13:52:44;100953.53;;;4.17;51.19
45040;BME280;30778;53.574;7.770;2023-02-01T13:57:41;100950.03;;;4.23;51.25
45040;BME280;30778;53.574;7.770;2023-02-01T14:00:29;100946.22;;;4.50;50.29
45040;BME280;30778;53.574;7.770;2023-02-01T14:21:46;100941.91;;;4.52;49.60
45040;BME280;30778;53.574;7.770;2023-02-01T14:37:04;100956.44;;;4.61;48.91
45040;BME280;30778;53.574;7.770;2023-02-01T14:39:35;100967.84;;;4.48;50.79
45040;BME280;30778;53.574;7.770;2023-02-01T14:42:15;100972.47;;;4.89;51.44
45040;BME280;30778;53.574;7.770;2023-02-01T14:44:44;100973.69;;;4.60;52.03
45040;BME280;30778;53.574;7.770;2023-02-01T14:49:49;100993.13;;;4.94;50.00
45040;BME280;30778;53.574;7.770;2023-02-01T14:52:20;100996.78;;;4.08;50.68
45040;BME280;30778;53.574;7.770;2023-02-01T14:54:54;100990.81;;;4.01;50.75
45040;BME280;30778;53.574;7.770;2023-02-01T14:57:24;101000.28;;;4.02;51.16
45040;BME280;30778;53.574;7.770;2023-02-01T14:59:57;100997.31;;;3.52;51.52
45040;BME280;30778;53.574;7.770;2023-02-01T15:02:25;100998.97;;;3.59;51.13
45040;BME280;30778;53.574;7.770;2023-02-01T15:04:54;101002.31;;;3.72;50.53
45040;BME280;30778;53.574;7.770;2023-02-01T15:07:22;101004.31;;;3.38;51.16
45040;BME280;30778;53.574;7.770;2023-02-01T15:09:50;101008.31;;;3.74;50.55
45040;BME280;30778;53.574;7.770;2023-02-01T15:12:22;101013.63;;;3.56;51.05
45040;BME280;30778;53.574;7.770;2023-02-01T15:17:40;101035.81;;;3.82;51.21
45040;BME280;30778;53.574;7.770;2023-02-01T15:20:16;101033.59;;;3.37;51.78
45040;BME280;30778;53.574;7.770;2023-02-01T15:22:52;101036.19;;;3.35;51.14
45040;BME280;30778;53.574;7.770;2023-02-01T15:25:20;101029.09;;;3.64;50.63